Overseas Long Beach — WAAT — position and weather

sailwx.info

Track history (hours):
 
Tides and Currents Weather Stations Pressure Air Temp Water Temp Dewpoint Dewpoint Depression Visibility Wind Speed Wind Dir Waves Ship Positions

Overseas Long Beach

Owner: ASC Leasing II, Inc., KENNETT SQUARE, PA. More information available from US FCC via Universal Licensing System and Coast Guard Vessel Documentation Center.

Last reported at 2017-May-24 15:00 UTC. Time now 2017-May-24 19:33 UTC.
Position N 27°12' W 091°06'.

Length 181 m; draft 10.8 m.

Type: Tanker. MMSI: 367703000.

Wind from 290 at 17 knots

Barometer 1008.5 mb
Air temperature 41.0 ° C
Visibility: greater than 5.4 NM
Dewpoint 38.6 ° C

Date/timePositionNaut miles runAvg speedWind from/ knotsBaromVisibWave heightAir tempDewpointWater temp
2017-May-24 15:00N 27°12' W 091°06'23412.5 290 / 171008.5 5.4 41.038.6
2017-May-23 20:16N 29°21' W 094°47'311.4
2017-May-23 20:00N 29°24' W 094°49'611.1
2017-May-23 19:30N 29°29' W 094°52'510.8
2017-May-23 19:00N 29°34' W 094°55'510.6
2017-May-23 18:30N 29°38' W 094°58'5 9.6
2017-May-23 18:00N 29°42' W 095°01'4 7.7
2017-May-23 17:30N 29°45' W 095°04'3 5.5
2017-May-23 17:00N 29°44' W 095°07'3 5.8
2017-May-23 16:30N 29°45' W 095°10'  
2017-May-20 20:18N 29°45' W 095°11'0 1.1
2017-May-20 20:00N 29°45' W 095°11'3 5.7
2017-May-20 19:26N 29°44' W 095°07'3 6.1
2017-May-20 19:00N 29°46' W 095°05'4 8.3
2017-May-20 18:29N 29°43' W 095°01'510.2
2017-May-20 18:01N 29°39' W 094°58'612.1
2017-May-20 17:31N 29°34' W 094°55'612.6
2017-May-20 17:01N 29°28' W 094°51'713.1
2017-May-20 16:31N 29°22' W 094°48'  
2017-May-17 16:00N 25°12' W 079°54'8 4.4 100 / 241017.2 5.4 27.025.6
2017-May-17 14:06N 25°20' W 079°57'610.8
2017-May-17 13:30N 25°26' W 079°56'510.6
2017-May-17 13:00N 25°31' W 079°56'510.4
2017-May-17 12:30N 25°37' W 079°55'510.2
2017-May-17 12:00N 25°42' W 079°55'510.2
2017-May-17 11:30N 25°47' W 079°56'510.3
2017-May-17 11:00N 25°52' W 079°57'510.5
2017-May-17 10:30N 25°57' W 079°57'510.6
2017-May-17 10:00N 26°02' W 079°57'510.8
2017-May-17 09:30N 26°08' W 079°58'611.3
2017-May-17 09:00N 26°13' W 079°58'612.1
2017-May-17 08:30N 26°20' W 079°59'613.0
2017-May-17 08:00N 26°26' W 079°58'612.4
2017-May-17 07:30N 26°32' W 079°58'612.0
2017-May-17 07:00N 26°38' W 079°58'712.1
2017-May-17 06:24N 26°46' W 079°58'513.7
2017-May-17 06:00N 26°51' W 079°57'713.9
2017-May-17 05:30N 26°58' W 079°57'713.7
2017-May-17 05:00N 27°05' W 079°57'  
Track history (hours):
 
Tides and Currents Weather Stations Pressure Air Temp Water Temp Dewpoint Dewpoint Depression Visibility Wind Speed Wind Dir Waves Ship Positions

Overseas Long Beach

Owner: ASC Leasing II, Inc., KENNETT SQUARE, PA. More information available from US FCC via Universal Licensing System and Coast Guard Vessel Documentation Center.

Last reported at 2017-May-24 15:00 UTC. Time now 2017-May-24 19:33 UTC.
Position N 27°12' W 091°06'.

Length 181 m; draft 10.8 m.

Type: Tanker. MMSI: 367703000.

Wind from 290 at 17 knots

Barometer 1008.5 mb
Air temperature 41.0 ° C
Visibility: greater than 5.4 NM
Dewpoint 38.6 ° C

Date/timePositionNaut miles runAvg speedWind from/ knotsBaromVisibWave heightAir tempDewpointWater temp
2017-May-24 15:00N 27°12' W 091°06'23412.5 290 / 171008.5 5.4 41.038.6
2017-May-23 20:16N 29°21' W 094°47'311.4
2017-May-23 20:00N 29°24' W 094°49'611.1
2017-May-23 19:30N 29°29' W 094°52'510.8
2017-May-23 19:00N 29°34' W 094°55'510.6
2017-May-23 18:30N 29°38' W 094°58'5 9.6
2017-May-23 18:00N 29°42' W 095°01'4 7.7
2017-May-23 17:30N 29°45' W 095°04'3 5.5
2017-May-23 17:00N 29°44' W 095°07'3 5.8
2017-May-23 16:30N 29°45' W 095°10'  
2017-May-20 20:18N 29°45' W 095°11'0 1.1
2017-May-20 20:00N 29°45' W 095°11'3 5.7
2017-May-20 19:26N 29°44' W 095°07'3 6.1
2017-May-20 19:00N 29°46' W 095°05'4 8.3
2017-May-20 18:29N 29°43' W 095°01'510.2
2017-May-20 18:01N 29°39' W 094°58'612.1
2017-May-20 17:31N 29°34' W 094°55'612.6
2017-May-20 17:01N 29°28' W 094°51'713.1
2017-May-20 16:31N 29°22' W 094°48'  
2017-May-17 16:00N 25°12' W 079°54'8 4.4 100 / 241017.2 5.4 27.025.6
2017-May-17 14:06N 25°20' W 079°57'610.8
2017-May-17 13:30N 25°26' W 079°56'510.6
2017-May-17 13:00N 25°31' W 079°56'510.4
2017-May-17 12:30N 25°37' W 079°55'510.2
2017-May-17 12:00N 25°42' W 079°55'510.2
2017-May-17 11:30N 25°47' W 079°56'510.3
2017-May-17 11:00N 25°52' W 079°57'510.5
2017-May-17 10:30N 25°57' W 079°57'510.6
2017-May-17 10:00N 26°02' W 079°57'510.8
2017-May-17 09:30N 26°08' W 079°58'611.3
2017-May-17 09:00N 26°13' W 079°58'612.1
2017-May-17 08:30N 26°20' W 079°59'613.0
2017-May-17 08:00N 26°26' W 079°58'612.4
2017-May-17 07:30N 26°32' W 079°58'612.0
2017-May-17 07:00N 26°38' W 079°58'712.1
2017-May-17 06:24N 26°46' W 079°58'513.7
2017-May-17 06:00N 26°51' W 079°57'713.9
2017-May-17 05:30N 26°58' W 079°57'713.7
2017-May-17 05:00N 27°05' W 079°57'  

Dump ship's entire track history